createdAt,value
2023-02-02T05:00:44.191Z,71.89
2023-02-02T05:04:47.397Z,72.40
2023-02-02T05:08:50.427Z,72.67
2023-02-02T05:12:53.355Z,72.82
2023-02-02T05:16:57.287Z,72.03
2023-02-02T05:21:00.930Z,72.02
2023-02-02T05:25:03.470Z,71.67
2023-02-02T05:29:06.713Z,71.91
2023-02-02T05:33:11.309Z,71.72
2023-02-02T05:37:13.878Z,71.71
2023-02-02T05:41:16.620Z,72.00
2023-02-02T05:45:19.135Z,71.94
2023-02-02T05:49:22.951Z,71.77
2023-02-02T05:53:25.833Z,71.79
2023-02-02T05:57:28.846Z,71.73
2023-02-02T06:01:31.601Z,71.59
2023-02-02T06:05:35.394Z,71.71
2023-02-02T06:09:37.886Z,71.79
2023-02-02T06:13:40.625Z,71.86
2023-02-02T06:17:43.116Z,71.93
2023-02-02T06:21:46.915Z,72.08
2023-02-02T06:25:49.405Z,71.87
2023-02-02T06:29:51.911Z,72.32
2023-02-02T06:33:56.756Z,71.98
2023-02-02T06:38:00.647Z,71.77
2023-02-02T06:42:19.374Z,71.73
2023-02-02T06:46:23.750Z,71.77
2023-02-02T06:50:26.470Z,71.93
2023-02-02T06:54:30.345Z,72.33
2023-02-02T06:58:34.453Z,72.08
2023-02-02T07:02:37.137Z,72.76
2023-02-02T07:06:40.559Z,72.71
2023-02-02T07:11:12.915Z,72.51
2023-02-02T07:15:08.244Z,72.76
2023-02-02T07:19:10.780Z,72.75
2023-02-02T07:23:13.268Z,72.64
2023-02-02T07:27:17.103Z,72.25
2023-02-02T07:31:21.704Z,72.81
2023-02-02T07:35:24.645Z,72.58
2023-02-02T07:39:27.219Z,72.45
2023-02-02T07:43:31.129Z,72.30
2023-02-02T07:47:33.573Z,72.29
2023-02-02T07:51:38.083Z,72.70
2023-02-02T07:55:41.883Z,72.76
2023-02-02T07:59:45.740Z,72.66
2023-02-02T08:03:48.228Z,72.96
2023-02-02T08:07:50.759Z,72.89
2023-02-02T08:11:53.257Z,72.87
2023-02-02T08:15:59.481Z,71.99
2023-02-02T08:20:02.076Z,72.05
2023-02-02T08:24:05.435Z,70.38
2023-02-02T08:28:07.923Z,69.59
2023-02-02T08:32:11.733Z,69.04
2023-02-02T08:36:14.783Z,69.63
2023-02-02T08:40:17.839Z,69.53
2023-02-02T08:44:20.348Z,69.56
2023-02-02T08:48:27.779Z,70.75
2023-02-02T08:52:30.480Z,70.62
2023-02-02T08:56:32.959Z,70.47
2023-02-02T09:00:35.438Z,70.55
2023-02-02T09:04:40.338Z,71.07
2023-02-02T09:08:43.390Z,70.98
2023-02-02T09:12:46.007Z,70.54
2023-02-02T09:16:48.519Z,71.01
2023-02-02T09:20:52.371Z,70.67
2023-02-02T09:24:54.837Z,70.71
2023-02-02T09:28:59.421Z,71.19
2023-02-02T09:33:01.927Z,71.22
2023-02-02T09:37:05.718Z,70.93
2023-02-02T09:41:32.055Z,71.14
2023-02-02T09:45:44.043Z,71.59
2023-02-02T09:49:55.185Z,71.51
2023-02-02T09:54:04.686Z,71.78
2023-02-02T09:58:14.480Z,71.57
2023-02-02T10:02:21.711Z,72.10
2023-02-02T10:06:34.161Z,71.92
2023-02-02T10:10:44.271Z,72.08
2023-02-02T10:14:53.225Z,72.68
2023-02-02T10:19:00.917Z,72.78
2023-02-02T10:23:13.806Z,72.62
2023-02-02T10:27:24.132Z,72.43
2023-02-02T10:31:39.939Z,72.40
2023-02-02T10:35:50.737Z,72.65
2023-02-02T10:40:14.716Z,72.31
2023-02-02T10:44:33.577Z,72.42
2023-02-02T10:48:37.182Z,72.47
2023-02-02T10:52:43.126Z,72.58
2023-02-02T10:56:53.901Z,72.95
2023-02-02T11:01:01.184Z,72.78
2023-02-02T11:05:21.303Z,72.97
2023-02-02T11:09:28.446Z,72.56
2023-02-02T11:13:34.286Z,72.79
2023-02-02T11:17:38.276Z,72.03
2023-02-02T11:21:40.835Z,71.65
2023-02-02T11:25:44.035Z,71.81
2023-02-02T11:29:49.138Z,71.35
2023-02-02T11:33:52.961Z,71.53
2023-02-02T11:38:02.223Z,72.13
2023-02-02T11:42:08.619Z,71.78
2023-02-02T11:46:20.624Z,71.82
2023-02-02T11:50:27.560Z,72.63
2023-02-02T11:54:33.142Z,72.22
2023-02-02T11:58:47.121Z,72.04
2023-02-02T12:02:50.503Z,72.62
2023-02-02T12:06:54.369Z,72.67
2023-02-02T12:11:00.416Z,71.10
2023-02-02T12:15:11.371Z,71.86
2023-02-02T12:19:54.220Z,71.46
2023-02-02T12:24:13.997Z,71.76
2023-02-02T12:28:31.739Z,71.85
2023-02-02T12:32:50.421Z,71.84
2023-02-02T12:37:03.463Z,71.56
2023-02-02T12:41:25.097Z,71.51
2023-02-02T12:45:43.917Z,71.96
2023-02-02T12:50:04.666Z,72.26
2023-02-02T12:54:35.213Z,72.36
2023-02-02T12:58:59.084Z,72.17
2023-02-02T13:03:10.089Z,71.80
2023-02-02T13:07:41.061Z,72.08
2023-02-02T13:11:49.917Z,72.52
2023-02-02T13:16:00.286Z,72.10
2023-02-02T13:20:07.334Z,72.12
2023-02-02T13:24:15.413Z,71.90
2023-02-02T13:28:32.951Z,71.96
2023-02-02T13:32:40.017Z,72.02
2023-02-02T13:36:47.774Z,72.11
2023-02-02T13:40:52.406Z,71.23
2023-02-02T13:45:02.565Z,71.82
2023-02-02T13:49:13.545Z,72.13
2023-02-02T13:53:39.526Z,72.30
2023-02-02T13:58:04.207Z,72.01
2023-02-02T14:02:22.983Z,71.59
2023-02-02T14:06:30.815Z,70.98
2023-02-02T14:10:36.210Z,71.14
2023-02-02T14:14:40.256Z,71.79
2023-02-02T14:18:54.735Z,71.74
2023-02-02T14:22:58.485Z,72.02
2023-02-02T14:27:02.614Z,73.23
2023-02-02T14:31:30.207Z,72.96
2023-02-02T14:36:02.123Z,73.71
2023-02-02T14:40:30.886Z,74.10
2023-02-02T14:44:37.454Z,74.31
2023-02-02T14:48:41.851Z,73.76
2023-02-02T14:53:00.395Z,73.76
2023-02-02T14:57:20.693Z,73.80
2023-02-02T15:01:26.992Z,73.68
2023-02-02T15:05:40.293Z,73.50
2023-02-02T15:09:44.662Z,73.78
2023-02-02T15:13:53.690Z,73.88
2023-02-02T15:18:07.547Z,73.77
2023-02-02T15:22:24.467Z,73.57
2023-02-02T15:26:31.810Z,73.97
2023-02-02T15:30:40.032Z,74.09
2023-02-02T15:34:47.089Z,74.41
2023-02-02T15:38:52.282Z,74.93
2023-02-02T15:43:00.186Z,75.31
2023-02-02T15:47:05.200Z,75.14
2023-02-02T15:51:15.224Z,75.88
2023-02-02T15:55:23.223Z,76.17
2023-02-02T15:59:27.828Z,76.46
2023-02-02T16:03:39.668Z,76.68
2023-02-02T16:07:42.480Z,77.13
2023-02-02T16:11:47.277Z,77.03
2023-02-02T16:15:56.622Z,77.38
2023-02-02T16:20:08.389Z,77.46
2023-02-02T16:24:16.364Z,77.54
2023-02-02T16:28:21.887Z,77.28
2023-02-02T16:32:29.958Z,77.21
2023-02-02T16:36:33.917Z,77.31
2023-02-02T16:40:36.828Z,77.14
2023-02-02T16:44:41.041Z,77.58
2023-02-02T16:48:45.377Z,78.18
2023-02-02T16:52:55.923Z,78.02
2023-02-02T16:57:02.339Z,78.23
2023-02-02T17:01:15.521Z,78.44
2023-02-02T17:05:22.120Z,78.19
2023-02-02T17:09:34.735Z,78.90
2023-02-02T17:13:41.009Z,78.91
2023-02-02T17:17:43.539Z,78.79
2023-02-02T17:21:49.476Z,78.85
2023-02-02T17:25:54.543Z,79.35
2023-02-02T17:29:57.727Z,79.37
2023-02-02T17:34:00.348Z,79.49
2023-02-02T17:38:02.872Z,79.77
2023-02-02T17:42:07.837Z,80.12
2023-02-02T17:46:12.953Z,80.11
2023-02-02T17:50:15.994Z,80.54
2023-02-02T17:54:18.550Z,80.19
2023-02-02T17:58:22.438Z,80.80
2023-02-02T18:02:24.934Z,81.28
2023-02-02T18:06:27.449Z,81.52
2023-02-02T18:10:30.248Z,81.00
2023-02-02T18:14:34.105Z,81.50
2023-02-02T18:18:36.672Z,81.10
2023-02-02T18:22:39.194Z,80.76
2023-02-02T18:26:42.068Z,80.93
2023-02-02T18:30:46.478Z,81.47
2023-02-02T18:34:54.949Z,81.31
2023-02-02T18:38:57.989Z,81.20
2023-02-02T18:43:00.561Z,81.04
2023-02-02T18:47:04.444Z,81.47
2023-02-02T18:51:08.343Z,81.54
2023-02-02T18:55:10.890Z,81.95
2023-02-02T18:59:13.437Z,81.73
2023-02-02T19:03:17.328Z,81.54
2023-02-02T19:07:39.510Z,81.49
2023-02-02T19:11:45.066Z,81.94
2023-02-02T19:15:50.114Z,81.89
2023-02-02T19:19:54.680Z,81.77
2023-02-02T19:23:57.714Z,81.91
2023-02-02T19:28:08.162Z,81.93
2023-02-02T19:32:15.991Z,82.10
2023-02-02T19:36:21.323Z,81.71
2023-02-02T19:40:26.183Z,81.50
2023-02-02T19:44:33.905Z,81.69
2023-02-02T19:48:36.782Z,81.49
2023-02-02T19:52:40.740Z,81.59
2023-02-02T19:56:43.246Z,82.08
2023-02-02T20:00:47.000Z,82.11
2023-02-02T20:05:07.020Z,82.14
2023-02-02T20:09:15.868Z,81.92
2023-02-02T20:13:21.111Z,81.34
2023-02-02T20:17:28.907Z,81.78
2023-02-02T20:21:37.739Z,81.59
2023-02-02T20:25:44.116Z,81.71
2023-02-02T20:29:49.435Z,82.57
2023-02-02T20:33:54.123Z,81.87
2023-02-02T20:37:56.754Z,81.98
2023-02-02T20:42:01.028Z,81.99
2023-02-02T20:46:03.701Z,82.47
2023-02-02T20:50:07.494Z,82.83
2023-02-02T20:54:10.970Z,82.44
2023-02-02T20:58:14.750Z,83.04
2023-02-02T21:02:19.774Z,83.02
2023-02-02T21:06:22.515Z,82.80
2023-02-02T21:10:27.373Z,82.88
2023-02-02T21:14:31.510Z,83.53
2023-02-02T21:18:34.063Z,83.11
2023-02-02T21:22:36.590Z,83.03
2023-02-02T21:26:39.281Z,82.70
2023-02-02T21:30:43.305Z,83.13
2023-02-02T21:34:45.935Z,83.08
2023-02-02T21:38:48.500Z,83.42
2023-02-02T21:42:51.180Z,83.30
2023-02-02T21:46:55.005Z,83.57
2023-02-02T21:50:57.869Z,83.05
2023-02-02T21:55:01.325Z,82.48
2023-02-02T21:59:11.585Z,82.98
